Time;durP1;ratioP1;P1;durP2;ratioP2;P2;SDS_P1;SDS_P2;PMS_P1;PMS_P2;Temp;Humidity;BMP_temperature;BMP_pressure;BME280_temperature;BME280_humidity;BME280_pressure;Samples;Min_cycle;Max_cycle;Signal;HPM_P1;HPM_P2
2021/10/21 00:01:12;;;;;;;12.73;9.68;;;;;;;22.92;55.45;101344.70;1767736;79;21248;-54
2021/10/21 00:03:38;;;;;;;13.88;8.88;;;;;;;22.91;55.46;101343.91;1766256;80;20895;-52
2021/10/21 00:06:05;;;;;;;12.37;9.33;;;;;;;22.91;55.47;101341.13;1771122;79;21033;-53
2021/10/21 00:08:31;;;;;;;10.15;8.28;;;;;;;22.90;55.50;101336.72;1769082;79;21070;-55
2021/10/21 00:10:57;;;;;;;12.23;9.35;;;;;;;22.89;55.50;101341.19;1769947;79;21116;-54
2021/10/21 00:13:24;;;;;;;13.13;10.10;;;;;;;22.89;55.48;101340.62;1768897;79;21146;-51
2021/10/21 00:15:50;;;;;;;11.35;9.10;;;;;;;22.88;55.49;101334.81;1773691;79;21637;-54
2021/10/21 00:18:16;;;;;;;10.98;8.65;;;;;;;22.88;55.49;101329.83;1768721;79;20905;-51
2021/10/21 00:20:42;;;;;;;11.15;9.25;;;;;;;22.90;55.53;101326.18;1771172;79;21508;-50
2021/10/21 00:23:11;;;;;;;12.60;8.98;;;;;;;22.92;55.63;101319.16;1772466;79;21077;-52
2021/10/21 00:25:38;;;;;;;12.80;9.43;;;;;;;22.95;55.72;101317.16;1768161;79;21116;-52
2021/10/21 00:28:05;;;;;;;12.73;9.85;;;;;;;22.98;55.79;101322.62;1765764;79;21088;-54
2021/10/21 00:30:31;;;;;;;13.43;10.40;;;;;;;22.99;55.82;101311.77;1770306;79;21060;-53
2021/10/21 00:32:58;;;;;;;12.33;9.15;;;;;;;23.01;55.79;101312.25;1765797;79;21595;-53
2021/10/21 00:35:25;;;;;;;13.95;10.05;;;;;;;23.02;55.71;101313.89;1766574;79;21506;-52
2021/10/21 00:37:53;;;;;;;12.25;9.45;;;;;;;23.03;55.64;101310.81;1764452;79;21269;-54
2021/10/21 00:40:22;;;;;;;13.70;10.67;;;;;;;23.05;55.59;101310.47;1770443;79;21116;-53
2021/10/21 00:42:49;;;;;;;15.48;10.23;;;;;;;23.05;55.51;101302.96;1767809;79;21084;-54
2021/10/21 00:45:16;;;;;;;13.13;10.72;;;;;;;23.05;55.46;101295.20;1768391;79;21588;-52
2021/10/21 00:47:42;;;;;;;13.65;10.40;;;;;;;23.05;55.43;101293.81;1766076;79;21111;-54
2021/10/21 00:50:09;;;;;;;13.43;10.18;;;;;;;23.04;55.37;101296.37;1768596;79;23296;-55
2021/10/21 00:52:36;;;;;;;13.60;10.40;;;;;;;23.04;55.32;101289.43;1768295;79;21209;-53
2021/10/21 00:55:04;;;;;;;13.88;10.35;;;;;;;23.02;55.28;101288.92;1759266;79;21048;-52
2021/10/21 00:57:30;;;;;;;14.07;10.85;;;;;;;23.02;55.27;101284.75;1771501;79;21064;-51
2021/10/21 00:59:56;;;;;;;13.50;10.72;;;;;;;23.00;55.24;101282.30;1770677;79;21050;-50
2021/10/21 01:02:22;;;;;;;12.93;10.15;;;;;;;22.99;55.21;101280.68;1769529;79;21328;-48
2021/10/21 01:04:48;;;;;;;16.42;11.48;;;;;;;22.99;55.21;101272.92;1769641;79;21508;-48
2021/10/21 01:07:14;;;;;;;15.98;11.55;;;;;;;22.97;55.18;101271.84;1770043;79;21069;-50
2021/10/21 01:09:43;;;;;;;12.65;10.38;;;;;;;22.96;55.17;101266.61;1765997;79;21087;-51
2021/10/21 01:12:11;;;;;;;17.73;11.33;;;;;;;22.94;55.18;101258.62;1771702;79;21094;-50
2021/10/21 01:14:37;;;;;;;13.93;11.22;;;;;;;22.92;55.17;101256.73;1768773;79;21117;-52
2021/10/21 01:17:03;;;;;;;15.43;11.22;;;;;;;22.91;55.16;101250.13;1770092;79;20998;-55
2021/10/21 01:19:29;;;;;;;14.70;11.55;;;;;;;22.90;55.15;101251.27;1769870;79;20945;-54
2021/10/21 01:21:56;;;;;;;14.25;11.33;;;;;;;22.89;55.15;101245.46;1768459;79;21970;-53
2021/10/21 01:24:24;;;;;;;14.55;11.73;;;;;;;22.89;55.16;101252.40;1767586;79;21090;-52
2021/10/21 01:26:51;;;;;;;14.40;11.83;;;;;;;22.87;55.17;101244.98;1771644;79;22380;-54
2021/10/21 01:29:19;;;;;;;14.58;11.28;;;;;;;22.86;55.15;101239.18;1765225;80;21467;-52
2021/10/21 01:31:46;;;;;;;14.83;11.00;;;;;;;22.84;55.17;101236.72;1767684;79;21058;-53
2021/10/21 01:34:12;;;;;;;14.40;11.57;;;;;;;22.84;55.16;101240.05;1770014;79;21056;-52
2021/10/21 01:36:39;;;;;;;14.93;11.73;;;;;;;22.84;55.16;101245.61;1770447;79;21662;-53
2021/10/21 01:39:09;;;;;;;13.65;11.10;;;;;;;22.83;55.15;101242.61;1768515;79;21155;-54
2021/10/21 01:41:35;;;;;;;15.13;12.37;;;;;;;22.82;55.14;101235.42;1769599;79;21077;-51
2021/10/21 01:44:01;;;;;;;14.20;11.65;;;;;;;22.80;55.15;101234.34;1773120;78;21053;-51
2021/10/21 01:46:27;;;;;;;13.15;11.03;;;;;;;22.80;55.14;101228.79;1746155;80;20863;-50
2021/10/21 01:48:53;;;;;;;13.95;11.08;;;;;;;22.79;55.15;101228.53;1763237;80;21432;-49
2021/10/21 01:51:19;;;;;;;15.60;11.45;;;;;;;22.78;55.15;101225.54;1767241;80;21224;-49
2021/10/21 01:53:45;;;;;;;15.60;12.03;;;;;;;22.78;55.14;101227.49;1762984;80;21552;-50
2021/10/21 01:56:11;;;;;;;13.85;11.33;;;;;;;22.77;55.14;101230.83;1772434;79;21101;-50
2021/10/21 01:58:37;;;;;;;14.38;11.48;;;;;;;22.76;55.12;101224.47;1777043;79;21071;-50
2021/10/21 02:01:03;;;;;;;13.32;10.78;;;;;;;22.75;55.13;101224.20;1776583;79;21316;-51
2021/10/21 02:03:30;;;;;;;13.48;10.88;;;;;;;22.74;55.12;101226.73;1772817;79;21359;-52
2021/10/21 02:05:56;;;;;;;14.40;11.38;;;;;;;22.74;55.10;101218.41;1769873;79;21059;-51
2021/10/21 02:08:22;;;;;;;13.10;11.18;;;;;;;22.74;55.10;101217.02;1771683;79;21145;-52
2021/10/21 02:10:49;;;;;;;13.53;11.03;;;;;;;22.73;55.11;101216.80;1773471;79;21062;-52
2021/10/21 02:13:15;;;;;;;14.07;11.33;;;;;;;22.73;55.08;101217.36;1768850;79;20985;-48
2021/10/21 02:15:41;;;;;;;14.70;11.63;;;;;;;22.73;55.07;101218.75;1771178;79;21700;-51
2021/10/21 02:18:07;;;;;;;14.87;11.70;;;;;;;22.72;55.07;101215.72;1772469;79;21061;-54
2021/10/21 02:20:33;;;;;;;13.62;10.75;;;;;;;22.71;55.07;101211.30;1773299;79;21525;-50
2021/10/21 02:22:59;;;;;;;14.15;11.10;;;;;;;22.71;55.07;101212.13;1775382;79;21046;-52
2021/10/21 02:25:25;;;;;;;14.43;11.05;;;;;;;22.71;55.07;101209.35;1769787;79;21053;-51
2021/10/21 02:27:51;;;;;;;14.50;11.05;;;;;;;22.70;55.07;101214.64;1778025;79;22119;-53
2021/10/21 02:30:18;;;;;;;13.30;10.80;;;;;;;22.69;55.04;101211.64;1774641;80;21225;-51
2021/10/21 02:32:44;;;;;;;13.78;11.25;;;;;;;22.69;55.04;101210.83;1777208;79;21102;-50
2021/10/21 02:35:11;;;;;;;13.95;11.22;;;;;;;22.68;55.04;101211.36;1774462;79;20995;-49
2021/10/21 02:37:37;;;;;;;14.15;11.00;;;;;;;22.67;55.03;101213.88;1774782;79;21034;-52
2021/10/21 02:40:05;;;;;;;14.45;12.00;;;;;;;22.67;55.03;101207.51;1775179;79;21419;-52
2021/10/21 02:42:32;;;;;;;12.88;10.48;;;;;;;22.66;55.03;101205.90;1769225;79;21095;-50
2021/10/21 02:44:57;;;;;;;14.15;11.38;;;;;;;22.67;55.01;101213.05;1773812;79;21152;-52
2021/10/21 02:47:23;;;;;;;14.73;11.35;;;;;;;22.66;55.03;101212.83;1773190;79;20956;-52
2021/10/21 02:49:49;;;;;;;12.30;10.65;;;;;;;22.65;54.99;101205.08;1775233;79;20927;-52
2021/10/21 02:52:16;;;;;;;12.47;10.32;;;;;;;22.65;54.99;101207.03;1776236;79;21301;-53
2021/10/21 02:54:42;;;;;;;13.65;10.95;;;;;;;22.64;54.99;101204.83;1778047;78;21139;-50
2021/10/21 02:57:08;;;;;;;15.48;11.15;;;;;;;22.65;54.98;101201.48;1772991;78;20916;-51
2021/10/21 02:59:34;;;;;;;13.35;10.88;;;;;;;22.63;54.98;101201.80;1769261;78;21930;-50
2021/10/21 03:02:01;;;;;;;13.25;11.00;;;;;;;22.63;54.97;101195.42;1768452;78;20932;-49
2021/10/21 03:04:27;;;;;;;14.03;11.33;;;;;;;22.63;54.98;101196.81;1781186;79;22035;-49
2021/10/21 03:06:53;;;;;;;13.85;11.03;;;;;;;22.63;54.96;101196.25;1767857;79;21094;-51
2021/10/21 03:09:19;;;;;;;14.63;11.45;;;;;;;22.62;54.94;101186.28;1767309;78;21035;-53
2021/10/21 03:11:45;;;;;;;12.58;11.12;;;;;;;22.63;54.94;101182.95;1775181;78;21560;-52
2021/10/21 03:14:11;;;;;;;12.37;10.08;;;;;;;22.63;54.91;101192.09;1775476;78;20980;-52
2021/10/21 03:16:38;;;;;;;10.70;8.78;;;;;;;22.64;54.92;101190.13;1779170;78;21170;-52
2021/10/21 03:19:05;;;;;;;11.93;8.08;;;;;;;22.64;54.90;101177.66;1777059;78;21062;-51
2021/10/21 03:21:32;;;;;;;9.15;6.80;;;;;;;22.65;54.88;101179.30;1775180;78;21055;-49
2021/10/21 03:23:58;;;;;;;9.55;6.67;;;;;;;22.65;54.88;101181.50;1782232;78;21481;-51
2021/10/21 03:26:25;;;;;;;8.23;6.25;;;;;;;22.66;54.85;101177.56;1776116;78;21060;-50
2021/10/21 03:28:51;;;;;;;8.35;6.40;;;;;;;22.67;54.84;101170.06;1775354;78;21615;-49
2021/10/21 03:31:18;;;;;;;7.95;6.50;;;;;;;22.68;54.84;101174.48;1770586;78;21154;-50
2021/10/21 03:33:44;;;;;;;9.43;6.25;;;;;;;22.71;54.82;101169.13;1775918;78;21047;-51
2021/10/21 03:36:10;;;;;;;8.15;6.37;;;;;;;22.71;54.81;101166.36;1778213;79;21126;-50
2021/10/21 03:38:37;;;;;;;8.93;6.83;;;;;;;22.72;54.79;101158.30;1780557;79;20870;-51
2021/10/21 03:41:03;;;;;;;7.40;6.37;;;;;;;22.74;54.80;101162.14;1777594;79;21173;-51
2021/10/21 03:43:29;;;;;;;7.87;6.45;;;;;;;22.74;54.77;101162.14;1780895;80;21478;-51
2021/10/21 03:45:55;;;;;;;9.45;6.28;;;;;;;22.76;54.78;101155.68;1773883;79;20889;-53
2021/10/21 03:48:21;;;;;;;7.62;6.45;;;;;;;22.76;54.78;101156.50;1777204;78;21555;-52
2021/10/21 03:50:47;;;;;;;7.05;5.75;;;;;;;22.78;54.75;101149.25;1771218;78;21048;-49
2021/10/21 03:53:14;;;;;;;8.63;6.55;;;;;;;22.79;54.76;101145.91;1761185;80;21054;-52
2021/10/21 03:55:41;;;;;;;8.05;6.30;;;;;;;22.80;54.76;101142.80;1779797;78;21078;-54
2021/10/21 03:58:07;;;;;;;9.45;6.78;;;;;;;22.82;54.77;101142.48;1779513;78;21097;-52
2021/10/21 04:00:33;;;;;;;9.00;6.60;;;;;;;22.81;54.78;101137.50;1778938;78;21522;-52
2021/10/21 04:03:00;;;;;;;7.92;5.97;;;;;;;22.83;54.78;101136.59;1781035;78;21053;-52
2021/10/21 04:05:26;;;;;;;8.43;6.80;;;;;;;22.83;54.78;101139.36;1771925;79;21088;-55
2021/10/21 04:07:52;;;;;;;9.13;6.78;;;;;;;22.84;54.79;101133.25;1769912;79;20947;-51
2021/10/21 04:10:18;;;;;;;9.83;6.80;;;;;;;22.85;54.79;101137.66;1765561;79;21161;-54
2021/10/21 04:12:44;;;;;;;6.95;5.30;;;;;;;22.85;54.79;101130.73;1762354;79;21050;-53
2021/10/21 04:15:10;;;;;;;8.60;5.95;;;;;;;22.85;54.79;101129.34;1763719;79;21443;-52
2021/10/21 04:17:37;;;;;;;7.47;6.00;;;;;;;22.86;54.82;101125.43;1768481;79;21430;-54
2021/10/21 04:20:05;;;;;;;7.55;5.67;;;;;;;22.86;54.82;101126.81;1771378;79;21070;-55
2021/10/21 04:22:31;;;;;;;7.62;5.35;;;;;;;22.87;54.83;101128.45;1770546;79;21083;-54
2021/10/21 04:24:57;;;;;;;5.92;4.92;;;;;;;22.87;54.83;101122.91;1766857;79;21500;-54
2021/10/21 04:27:24;;;;;;;7.03;5.37;;;;;;;22.88;54.82;101127.30;1768791;80;21073;-57
2021/10/21 04:29:50;;;;;;;7.55;5.20;;;;;;;22.87;54.83;101117.36;1767543;80;21383;-57
2021/10/21 04:32:16;;;;;;;10.05;5.60;;;;;;;22.88;54.84;101117.58;1767644;79;20870;-55
2021/10/21 04:34:42;;;;;;;8.78;5.83;;;;;;;22.87;54.87;101111.24;1764986;79;21034;-54
2021/10/21 04:37:08;;;;;;;15.03;8.40;;;;;;;22.89;54.88;101117.84;1761710;79;20974;-51
2021/10/21 04:39:34;;;;;;;9.75;6.12;;;;;;;22.89;54.91;101117.27;1764299;80;21132;-51
2021/10/21 04:42:01;;;;;;;6.47;5.05;;;;;;;22.92;54.96;101111.63;1764568;79;21054;-51
2021/10/21 04:44:27;;;;;;;12.65;6.72;;;;;;;22.96;55.06;101109.83;1762247;79;21143;-51
2021/10/21 04:46:57;;;;;;;8.60;6.05;;;;;;;22.99;55.21;101111.97;1766611;79;21660;-52
2021/10/21 04:49:23;;;;;;;7.67;6.22;;;;;;;23.02;55.35;101106.58;1758652;79;21239;-52
2021/10/21 04:51:50;;;;;;;12.30;8.95;;;;;;;23.06;55.45;101107.56;1769438;80;21107;-53
2021/10/21 04:54:16;;;;;;;13.32;9.80;;;;;;;23.08;55.48;101103.91;1782626;78;22117;-51
2021/10/21 04:56:43;;;;;;;15.83;12.03;;;;;;;23.11;55.46;101101.85;1792701;78;21075;-50
2021/10/21 04:59:10;;;;;;;20.12;14.65;;;;;;;23.15;55.42;101102.01;1762597;79;21174;-49
2021/10/21 05:01:36;;;;;;;20.92;15.43;;;;;;;23.16;55.38;101096.70;1775510;79;21041;-49
2021/10/21 05:04:02;;;;;;;35.65;21.33;;;;;;;23.18;55.33;101104.12;1771001;79;21581;-52
2021/10/21 05:06:28;;;;;;;39.55;25.00;;;;;;;23.19;55.30;101104.37;1768409;79;21145;-55
2021/10/21 05:08:54;;;;;;;29.87;17.57;;;;;;;23.19;55.28;101098.81;1775048;79;22250;-54
2021/10/21 05:11:20;;;;;;;24.40;16.65;;;;;;;23.20;55.27;101099.06;1771987;79;20984;-50
2021/10/21 05:13:46;;;;;;;29.18;19.57;;;;;;;23.20;55.26;101101.28;1775471;79;21536;-52
2021/10/21 05:16:13;;;;;;;27.05;18.87;;;;;;;23.20;55.27;101102.66;1775912;79;21067;-53
2021/10/21 05:18:39;;;;;;;30.15;21.50;;;;;;;23.20;55.27;101107.39;1770973;78;21457;-53
2021/10/21 05:21:05;;;;;;;27.58;20.70;;;;;;;23.19;55.28;101100.20;1790458;78;21057;-53
2021/10/21 05:23:31;;;;;;;27.05;19.12;;;;;;;23.18;55.34;101104.94;1793139;78;21140;-53
2021/10/21 05:25:57;;;;;;;24.90;19.32;;;;;;;23.17;55.36;101106.07;1802812;78;21058;-54
2021/10/21 05:28:23;;;;;;;28.07;18.60;;;;;;;23.15;55.43;101093.68;1794044;78;21010;-55
2021/10/21 05:30:54;;;;;;;26.10;17.98;;;;;;;23.16;55.46;101103.64;1766428;80;22136;-52
2021/10/21 05:33:25;;;;;;;22.60;16.62;;;;;;;23.15;55.51;101102.01;1720648;81;28917;-51
2021/10/21 05:35:51;;;;;;;24.75;16.77;;;;;;;23.13;55.54;101097.34;1759615;80;21469;-54
2021/10/21 05:38:17;;;;;;;23.83;17.35;;;;;;;23.12;55.59;101104.06;1787409;78;21039;-53
2021/10/21 05:40:43;;;;;;;22.93;17.95;;;;;;;23.10;55.61;101098.00;1785538;78;21071;-53
2021/10/21 05:43:09;;;;;;;24.05;16.05;;;;;;;23.09;55.66;101097.75;1791608;78;21976;-53
2021/10/21 05:45:36;;;;;;;19.27;14.53;;;;;;;23.09;55.68;101099.14;1778496;78;21057;-54
2021/10/21 05:48:02;;;;;;;18.30;14.60;;;;;;;23.09;55.73;101099.14;1785439;78;21086;-53
2021/10/21 05:50:28;;;;;;;17.98;13.72;;;;;;;23.12;55.80;101094.34;1790172;78;21031;-53
2021/10/21 05:52:55;;;;;;;19.70;13.78;;;;;;;23.14;55.92;101094.81;1780283;78;21004;-52
2021/10/21 05:55:21;;;;;;;16.77;13.28;;;;;;;23.15;56.01;101089.52;1774313;78;21286;-52
2021/10/21 05:57:47;;;;;;;18.85;14.35;;;;;;;23.15;56.05;101088.95;1770721;79;21312;-54
2021/10/21 06:00:13;;;;;;;17.10;12.43;;;;;;;23.16;56.03;101090.59;1769999;80;21088;-52
2021/10/21 06:02:39;;;;;;;17.35;13.45;;;;;;;23.18;55.99;101088.84;1771535;80;21691;-53
2021/10/21 06:05:06;;;;;;;17.65;12.45;;;;;;;23.19;55.93;101093.27;1793311;78;21038;-53
2021/10/21 06:07:33;;;;;;;14.85;11.88;;;;;;;23.19;55.87;101089.92;1796267;78;21266;-54
2021/10/21 06:09:59;;;;;;;17.48;12.53;;;;;;;23.19;55.82;101086.33;1793974;78;21056;-54
2021/10/21 06:12:25;;;;;;;15.30;11.95;;;;;;;23.18;55.77;101081.34;1794736;78;20995;-54
2021/10/21 06:14:51;;;;;;;15.30;11.35;;;;;;;23.18;55.73;101077.17;1795732;78;21043;-53
2021/10/21 06:17:19;;;;;;;18.65;12.18;;;;;;;23.18;55.70;101077.75;1763027;79;21030;-54
2021/10/21 06:19:45;;;;;;;15.70;11.70;;;;;;;23.16;55.64;101073.11;1775521;79;21234;-54
2021/10/21 06:22:13;;;;;;;16.30;12.05;;;;;;;23.15;55.60;101068.70;1774884;79;21548;-54
2021/10/21 06:24:39;;;;;;;14.83;11.33;;;;;;;23.13;55.60;101073.18;1779272;79;21428;-54
2021/10/21 06:27:05;;;;;;;14.28;11.30;;;;;;;23.12;55.55;101070.75;1777882;79;20908;-51
2021/10/21 06:29:31;;;;;;;15.43;11.57;;;;;;;23.11;55.54;101071.89;1774002;79;21696;-53
2021/10/21 06:32:00;;;;;;;16.17;11.00;;;;;;;23.08;55.54;101069.21;1776593;79;21895;-53
2021/10/21 06:34:25;;;;;;;17.10;11.38;;;;;;;23.07;55.49;101075.08;1776445;79;21514;-51
2021/10/21 06:36:52;;;;;;;13.65;10.70;;;;;;;23.05;55.49;101068.45;1777610;79;21108;-52
2021/10/21 06:39:18;;;;;;;15.90;11.05;;;;;;;23.04;55.50;101068.80;1780013;78;21060;-54
2021/10/21 06:41:45;;;;;;;14.45;10.98;;;;;;;23.04;55.48;101066.03;1776999;79;21447;-54
2021/10/21 06:44:11;;;;;;;15.55;11.30;;;;;;;23.01;55.47;101059.73;1779285;79;21236;-52
2021/10/21 06:46:37;;;;;;;14.10;10.70;;;;;;;23.01;55.48;101065.27;1775485;79;21467;-54
2021/10/21 06:49:03;;;;;;;15.68;10.20;;;;;;;22.99;55.44;101060.64;1778057;79;21011;-52
2021/10/21 06:51:29;;;;;;;13.58;10.55;;;;;;;22.98;55.44;101064.55;1779792;79;20913;-53
2021/10/21 06:53:55;;;;;;;13.93;10.80;;;;;;;22.96;55.46;101058.50;1772322;79;20998;-54
2021/10/21 06:56:21;;;;;;;12.93;10.43;;;;;;;22.95;55.45;101055.50;1770263;79;21079;-53
2021/10/21 06:58:47;;;;;;;13.05;10.38;;;;;;;22.94;55.43;101048.31;1771030;79;21001;-54
2021/10/21 07:01:14;;;;;;;12.28;9.65;;;;;;;22.93;55.42;101057.77;1768385;79;21076;-54
2021/10/21 07:03:39;;;;;;;14.73;10.63;;;;;;;22.92;55.42;101053.36;1793053;79;21129;-52
2021/10/21 07:06:05;;;;;;;12.23;10.03;;;;;;;22.90;55.40;101055.09;1762721;80;20896;-53
2021/10/21 07:08:32;;;;;;;12.20;10.03;;;;;;;22.90;55.41;101055.66;1764996;80;21621;-54
2021/10/21 07:11:01;;;;;;;11.95;9.88;;;;;;;22.88;55.40;101054.59;1770190;80;21006;-54
2021/10/21 07:13:26;;;;;;;14.05;10.43;;;;;;;22.87;55.39;101055.76;1769328;80;21072;-53
2021/10/21 07:15:53;;;;;;;13.75;9.85;;;;;;;22.86;55.37;101054.69;1765426;80;21106;-52
2021/10/21 07:18:18;;;;;;;14.70;10.50;;;;;;;22.86;55.37;101060.23;1769402;80;20894;-53
2021/10/21 07:20:44;;;;;;;13.00;9.98;;;;;;;22.85;55.37;101051.09;1765397;80;21968;-53
2021/10/21 07:23:11;;;;;;;11.18;9.08;;;;;;;22.85;55.36;101051.66;1764241;80;20962;-53
2021/10/21 07:25:37;;;;;;;12.35;9.53;;;;;;;22.84;55.34;101051.41;1769466;80;20978;-55
2021/10/21 07:28:04;;;;;;;11.80;9.45;;;;;;;22.84;55.35;101048.63;1762743;80;21112;-53
2021/10/21 07:30:30;;;;;;;14.15;10.03;;;;;;;22.83;55.32;101052.58;1767087;80;21512;-52
2021/10/21 07:32:58;;;;;;;14.03;9.48;;;;;;;22.82;55.31;101052.33;1766983;80;21318;-54
2021/10/21 07:35:26;;;;;;;13.78;9.38;;;;;;;22.81;55.29;101045.95;1765481;80;21001;-52
2021/10/21 07:37:53;;;;;;;12.13;9.10;;;;;;;22.81;55.29;101047.91;1770383;80;21109;-53
2021/10/21 07:40:19;;;;;;;12.82;8.88;;;;;;;22.79;55.29;101045.45;1766378;80;20996;-54
2021/10/21 07:42:45;;;;;;;10.30;8.58;;;;;;;22.80;55.28;101042.11;1764895;80;21078;-53
2021/10/21 07:45:11;;;;;;;12.15;9.25;;;;;;;22.79;55.27;101037.13;1770549;80;21178;-53
2021/10/21 07:47:38;;;;;;;10.58;8.80;;;;;;;22.78;55.25;101036.91;1734144;81;21668;-54
2021/10/21 07:50:06;;;;;;;12.07;9.30;;;;;;;22.78;55.22;101030.54;1762290;80;21247;-53
2021/10/21 07:52:35;;;;;;;10.53;8.53;;;;;;;22.77;55.19;101024.17;1772235;80;21096;-53
2021/10/21 07:55:01;;;;;;;10.28;8.68;;;;;;;22.75;55.19;101018.94;1761816;80;21201;-54
2021/10/21 07:57:27;;;;;;;11.97;8.90;;;;;;;22.75;55.18;101014.78;1763318;80;21636;-53
2021/10/21 07:59:53;;;;;;;11.43;8.53;;;;;;;22.76;55.17;101011.44;1764897;80;21098;-53
2021/10/21 08:02:20;;;;;;;10.60;8.78;;;;;;;22.74;55.17;101011.75;1768604;80;21544;-53
2021/10/21 08:04:46;;;;;;;10.48;8.40;;;;;;;22.75;55.14;101009.80;1768772;80;21009;-53
2021/10/21 08:07:12;;;;;;;12.25;8.58;;;;;;;22.74;55.13;101015.12;1762880;80;21069;-54
2021/10/21 08:09:38;;;;;;;12.65;9.20;;;;;;;22.73;55.12;101012.11;1761426;80;21526;-54
2021/10/21 08:12:07;;;;;;;10.28;8.35;;;;;;;22.74;55.10;101009.58;1765450;80;20878;-54
2021/10/21 08:14:33;;;;;;;9.78;8.13;;;;;;;22.73;55.10;101012.11;1769535;80;20992;-54
2021/10/21 08:17:00;;;;;;;11.88;8.73;;;;;;;22.72;55.08;101008.51;1766523;80;21117;-51
2021/10/21 08:19:27;;;;;;;12.80;8.78;;;;;;;22.73;55.08;101005.98;1769087;80;21315;-53
2021/10/21 08:21:53;;;;;;;9.75;8.18;;;;;;;22.70;55.06;101002.46;1764378;80;21528;-54
2021/10/21 08:24:20;;;;;;;10.53;8.65;;;;;;;22.72;55.06;101004.92;1765809;80;20992;-52
2021/10/21 08:26:47;;;;;;;10.58;7.97;;;;;;;22.71;55.05;101003.28;1761714;80;21037;-52
2021/10/21 08:29:13;;;;;;;11.45;8.30;;;;;;;22.70;55.03;100999.69;1762350;80;21092;-52
2021/10/21 08:31:39;;;;;;;10.15;8.05;;;;;;;22.68;55.01;100996.41;1764510;80;20933;-53
2021/10/21 08:34:05;;;;;;;10.58;8.53;;;;;;;22.69;54.97;100998.08;1771202;80;21241;-54
2021/10/21 08:36:31;;;;;;;10.20;8.45;;;;;;;22.67;54.98;100989.22;1768788;80;21468;-53
2021/10/21 08:38:57;;;;;;;11.45;8.40;;;;;;;22.68;54.96;100988.66;1762951;80;21004;-53
2021/10/21 08:41:25;;;;;;;9.98;7.08;;;;;;;22.68;54.95;100981.16;1765476;80;20967;-52
2021/10/21 08:43:51;;;;;;;9.90;7.85;;;;;;;22.68;54.93;100981.72;1743544;80;21021;-52
2021/10/21 08:46:25;;;;;;;8.93;7.55;;;;;;;22.67;54.94;100981.47;1744836;80;21518;-54
2021/10/21 08:48:58;;;;;;;10.08;7.80;;;;;;;22.68;54.91;100980.34;1770555;79;21028;-53
2021/10/21 08:51:25;;;;;;;10.90;7.78;;;;;;;22.67;54.91;100972.58;1770195;79;21533;-54
2021/10/21 08:53:52;;;;;;;9.25;7.97;;;;;;;22.65;54.89;100972.11;1771245;79;21055;-54
2021/10/21 08:56:25;;;;;;;10.32;7.67;;;;;;;22.66;54.89;100969.56;1743587;80;21096;-54
2021/10/21 08:58:53;;;;;;;10.78;8.05;;;;;;;22.65;54.86;100961.59;1779652;79;21446;-55
2021/10/21 09:01:22;;;;;;;10.15;7.78;;;;;;;22.66;54.84;100964.61;1748969;80;21019;-54
2021/10/21 09:08:56;;;;;;;9.55;7.45;;;;;;;22.65;54.82;100958.81;1777942;79;21092;-51
2021/10/21 09:11:23;;;;;;;9.03;7.40;;;;;;;22.65;54.82;100953.27;1778810;79;21813;-53
2021/10/21 09:14:06;;;;;;;8.65;7.00;;;;;;;22.63;54.80;100945.27;1777434;79;21017;-55
2021/10/21 09:16:32;;;;;;;9.03;7.33;;;;;;;22.63;54.79;100943.88;1775597;79;21078;-53
2021/10/21 09:18:58;;;;;;;8.85;6.90;;;;;;;22.63;54.78;100939.72;1772168;79;21620;-50
2021/10/21 09:21:34;;;;;;;8.85;6.62;;;;;;;22.62;54.77;100922.01;1774729;79;21169;-52
2021/10/21 09:24:28;;;;;;;8.95;6.67;;;;;;;22.63;54.76;100925.03;1781769;79;21341;-53
2021/10/21 09:27:08;;;;;;;8.88;7.30;;;;;;;22.62;54.78;100922.83;1780310;79;21097;-53
2021/10/21 09:29:46;;;;;;;8.03;6.40;;;;;;;22.61;54.75;100921.22;1771530;79;21081;-50
2021/10/21 09:32:27;;;;;;;10.00;7.08;;;;;;;22.61;54.75;100913.47;1772422;79;21103;-53
2021/10/21 09:35:04;;;;;;;8.95;6.83;;;;;;;22.61;54.74;100909.31;1782423;79;21040;-54
2021/10/21 09:37:44;;;;;;;9.15;6.83;;;;;;;22.59;54.74;100907.42;1772733;79;21958;-51
2021/10/21 09:40:14;;;;;;;8.13;6.30;;;;;;;22.58;54.70;100907.99;1775800;79;21015;-50
2021/10/21 09:42:44;;;;;;;8.73;7.23;;;;;;;22.59;54.73;100904.08;1774597;79;21369;-52
2021/10/21 09:45:20;;;;;;;8.13;6.42;;;;;;;22.57;54.74;100903.61;1776550;79;21541;-53
2021/10/21 09:47:52;;;;;;;8.88;7.10;;;;;;;22.58;54.72;100907.99;1776660;79;21090;-54
2021/10/21 09:50:38;;;;;;;7.75;6.50;;;;;;;22.57;54.71;100903.61;1781304;79;22052;-54
2021/10/21 09:53:22;;;;;;;9.65;6.12;;;;;;;22.58;54.70;100912.15;1779460;79;21019;-52
2021/10/21 09:55:56;;;;;;;8.55;6.47;;;;;;;22.58;54.69;100898.28;1782222;79;21407;-52
2021/10/21 09:58:24;;;;;;;7.30;6.28;;;;;;;22.57;54.68;100903.61;1780472;79;21383;-50
2021/10/21 10:00:50;;;;;;;7.70;6.45;;;;;;;22.57;54.68;100905.56;1781267;79;21528;-52
2021/10/21 10:03:31;;;;;;;8.88;6.22;;;;;;;22.56;54.64;100901.16;1778043;79;21261;-52
2021/10/21 10:05:57;;;;;;;7.62;6.25;;;;;;;22.56;54.65;100896.43;1784375;79;21497;-55
2021/10/21 10:08:25;;;;;;;6.55;5.55;;;;;;;22.56;54.64;100892.27;1781993;79;20963;-52
2021/10/21 10:10:55;;;;;;;6.80;5.28;;;;;;;22.56;54.64;100882.56;1783916;79;21500;-54
2021/10/21 10:13:22;;;;;;;7.40;5.90;;;;;;;22.57;54.62;100875.88;1779254;79;26478;-51
2021/10/21 10:15:49;;;;;;;8.10;6.33;;;;;;;22.57;54.63;100873.11;1780355;79;21962;-54
2021/10/21 10:18:26;;;;;;;7.80;5.90;;;;;;;22.57;54.62;100868.13;1779499;79;21533;-53
2021/10/21 10:21:04;;;;;;;7.45;6.00;;;;;;;22.57;54.60;100861.20;1781959;79;21464;-53
2021/10/21 10:23:32;;;;;;;7.22;5.72;;;;;;;22.56;54.60;100857.61;1782933;79;22275;-51
2021/10/21 10:25:59;;;;;;;7.20;5.90;;;;;;;22.57;54.58;100850.92;1781301;79;21081;-53
2021/10/21 10:28:25;;;;;;;8.10;6.67;;;;;;;22.57;54.57;100841.79;1781326;79;21959;-54
2021/10/21 10:30:53;;;;;;;7.12;6.37;;;;;;;22.57;54.57;100839.83;1784913;79;20946;-53
2021/10/21 10:33:37;;;;;;;7.92;5.62;;;;;;;22.58;54.55;100840.05;1784637;79;21057;-50
2021/10/21 10:36:29;;;;;;;7.03;5.17;;;;;;;22.58;54.55;100835.89;1784791;79;21433;-48
2021/10/21 10:39:01;;;;;;;6.90;5.25;;;;;;;22.57;54.51;100824.58;1780189;79;21017;-50
2021/10/21 10:41:51;;;;;;;6.83;5.72;;;;;;;22.57;54.50;100819.04;1775536;79;21072;-49
2021/10/21 10:44:40;;;;;;;6.37;5.37;;;;;;;22.57;54.50;100816.27;1778125;79;21057;-57
2021/10/21 10:47:08;;;;;;;6.23;4.90;;;;;;;22.57;54.49;100814.06;1784442;79;21089;-59
2021/10/21 10:49:42;;;;;;;8.68;5.15;;;;;;;22.57;54.49;100811.29;1781909;79;21093;-59
2021/10/21 10:52:12;;;;;;;6.25;5.37;;;;;;;22.56;54.48;100803.54;1782044;79;20971;-59
2021/10/21 10:54:55;;;;;;;5.92;5.20;;;;;;;22.57;54.48;100801.58;1782643;79;21082;-59
2021/10/21 10:57:30;;;;;;;7.78;4.97;;;;;;;22.56;54.48;100798.56;1786575;78;21082;-60
2021/10/21 10:59:56;;;;;;;7.40;5.40;;;;;;;22.56;54.48;100795.22;1788240;78;21014;-54
2021/10/21 11:02:28;;;;;;;6.12;5.00;;;;;;;22.56;54.44;100788.28;1785767;78;21462;-52
2021/10/21 11:04:58;;;;;;;7.53;5.65;;;;;;;22.57;54.44;100787.72;1786857;78;21030;-54
2021/10/21 11:07:30;;;;;;;5.62;4.67;;;;;;;22.56;54.46;100780.54;1788132;78;21225;-54
2021/10/21 11:10:26;;;;;;;6.40;5.22;;;;;;;22.57;54.43;100778.02;1780121;78;21050;-51
2021/10/21 11:12:52;;;;;;;6.00;4.83;;;;;;;22.57;54.44;100774.67;1763963;78;20989;-52
2021/10/21 11:15:37;;;;;;;6.22;5.10;;;;;;;22.57;54.43;100764.97;1787662;79;21522;-53
2021/10/21 11:18:04;;;;;;;5.80;4.45;;;;;;;22.58;54.41;100760.20;1786799;78;21515;-52
2021/10/21 11:20:37;;;;;;;6.62;5.12;;;;;;;22.57;54.41;100748.90;1788647;79;21250;-54
2021/10/21 11:23:29;;;;;;;6.72;5.45;;;;;;;22.57;54.39;100748.33;1789221;78;21070;-54
2021/10/21 11:26:00;;;;;;;5.85;4.60;;;;;;;22.57;54.37;100748.33;1772904;78;21054;-52